createdAt,value
2018-09-30T00:00:51.632Z,48.70
2018-09-30T00:03:21.276Z,48.60
2018-09-30T00:05:49.897Z,48.70
2018-09-30T00:08:18.802Z,48.80
2018-09-30T00:10:47.513Z,48.70
2018-09-30T00:13:16.152Z,48.80
2018-09-30T00:15:45.281Z,48.90
2018-09-30T00:18:14.078Z,48.90
2018-09-30T00:20:42.740Z,48.90
2018-09-30T00:23:11.435Z,48.80
2018-09-30T00:25:45.456Z,48.90
2018-09-30T00:28:14.649Z,48.60
2018-09-30T00:30:43.321Z,48.70
2018-09-30T00:33:13.176Z,48.60
2018-09-30T00:35:41.845Z,48.70
2018-09-30T00:38:10.654Z,49.00
2018-09-30T00:40:41.302Z,49.10
2018-09-30T00:43:10.437Z,49.20
2018-09-30T00:45:40.303Z,49.40
2018-09-30T00:48:09.129Z,49.60
2018-09-30T00:50:39.436Z,49.80
2018-09-30T00:53:07.955Z,49.90
2018-09-30T00:55:36.750Z,50.00
2018-09-30T00:58:05.330Z,50.00
2018-09-30T01:00:33.896Z,50.00
2018-09-30T01:03:02.599Z,50.00
2018-09-30T01:05:31.503Z,49.90
2018-09-30T01:08:00.380Z,49.90
2018-09-30T01:10:29.503Z,49.90
2018-09-30T01:12:58.452Z,50.10
2018-09-30T01:15:27.236Z,50.10
2018-09-30T01:17:56.497Z,50.10
2018-09-30T01:20:26.448Z,50.20
2018-09-30T01:22:55.073Z,50.10
2018-09-30T01:25:24.107Z,50.10
2018-09-30T01:27:52.759Z,50.30
2018-09-30T01:30:21.388Z,50.40
2018-09-30T01:32:49.983Z,50.90
2018-09-30T01:35:18.997Z,50.40
2018-09-30T01:37:48.424Z,50.50
2018-09-30T01:40:16.986Z,50.60
2018-09-30T01:42:46.769Z,50.80
2018-09-30T01:45:15.440Z,50.80
2018-09-30T01:47:44.791Z,50.70
2018-09-30T01:50:14.271Z,50.70
2018-09-30T01:52:50.596Z,50.70
2018-09-30T01:55:20.077Z,50.70
2018-09-30T01:57:48.668Z,50.90
2018-09-30T02:00:18.090Z,51.30
2018-09-30T02:02:47.228Z,51.00
2018-09-30T02:05:17.248Z,51.00
2018-09-30T02:07:47.149Z,51.40
2018-09-30T02:10:16.145Z,52.40
2018-09-30T02:12:45.516Z,51.90
2018-09-30T02:15:14.194Z,51.70
2018-09-30T02:17:42.751Z,51.90
2018-09-30T02:20:11.435Z,51.80
2018-09-30T02:22:40.499Z,51.70
2018-09-30T02:25:09.133Z,51.80
2018-09-30T02:27:37.790Z,51.80
2018-09-30T02:30:07.169Z,51.90
2018-09-30T02:32:35.769Z,51.80
2018-09-30T02:35:04.491Z,51.80
2018-09-30T02:37:33.581Z,51.90
2018-09-30T02:40:02.292Z,52.00
2018-09-30T02:42:31.150Z,52.00
2018-09-30T02:44:59.882Z,52.10
2018-09-30T02:47:28.521Z,52.10
2018-09-30T02:49:57.285Z,52.30
2018-09-30T02:52:26.388Z,52.60
2018-09-30T02:54:54.958Z,52.70
2018-09-30T02:57:23.585Z,52.60
2018-09-30T02:59:52.158Z,52.40
2018-09-30T03:02:20.699Z,52.50
2018-09-30T03:04:49.358Z,52.50
2018-09-30T03:07:23.226Z,52.40
2018-09-30T03:09:51.926Z,52.50
2018-09-30T03:12:20.529Z,52.50
2018-09-30T03:14:49.794Z,52.50
2018-09-30T03:17:18.419Z,52.60
2018-09-30T03:19:47.230Z,52.70
2018-09-30T03:22:15.782Z,52.80
2018-09-30T03:24:44.321Z,53.30
2018-09-30T03:27:13.244Z,53.10
2018-09-30T03:29:42.219Z,53.00
2018-09-30T03:32:10.824Z,53.20
2018-09-30T03:34:39.505Z,53.40
2018-09-30T03:37:14.949Z,53.40
2018-09-30T03:39:43.600Z,53.40
2018-09-30T03:42:12.136Z,53.40
2018-09-30T03:44:40.765Z,53.40
2018-09-30T03:47:09.374Z,53.50
2018-09-30T03:49:38.222Z,53.70
2018-09-30T03:52:06.892Z,53.70
2018-09-30T03:54:35.524Z,53.70
2018-09-30T03:57:04.129Z,53.70
2018-09-30T03:59:33.222Z,53.70
2018-09-30T04:02:02.164Z,53.70
2018-09-30T04:04:30.870Z,53.80
2018-09-30T04:07:00.069Z,53.80
2018-09-30T04:09:29.267Z,53.80
2018-09-30T04:11:57.923Z,53.80
2018-09-30T04:14:26.591Z,54.00
2018-09-30T04:16:55.222Z,54.20
2018-09-30T04:19:24.376Z,54.20
2018-09-30T04:21:53.057Z,54.10
2018-09-30T04:24:22.078Z,54.10
2018-09-30T04:26:50.657Z,54.20
2018-09-30T04:29:19.326Z,54.20
2018-09-30T04:31:48.277Z,54.30
2018-09-30T04:34:16.867Z,54.30
2018-09-30T04:36:45.497Z,54.30
2018-09-30T04:39:14.097Z,54.50
2018-09-30T04:41:43.348Z,54.50
2018-09-30T04:44:11.897Z,54.50
2018-09-30T04:46:40.802Z,54.40
2018-09-30T04:49:09.388Z,54.40
2018-09-30T04:51:38.496Z,54.60
2018-09-30T04:54:07.104Z,54.70
2018-09-30T04:56:35.814Z,54.80
2018-09-30T04:59:04.561Z,54.90
2018-09-30T05:01:33.825Z,54.70
2018-09-30T05:04:02.746Z,54.80
2018-09-30T05:06:31.313Z,54.70
2018-09-30T05:09:01.809Z,54.80
2018-09-30T05:11:30.886Z,54.80
2018-09-30T05:14:00.343Z,54.80
2018-09-30T05:16:29.151Z,54.70
2018-09-30T05:18:59.429Z,54.70
2018-09-30T05:21:28.129Z,54.60
2018-09-30T05:23:57.157Z,54.40
2018-09-30T05:26:26.296Z,54.90
2018-09-30T05:28:56.459Z,54.40
2018-09-30T05:31:26.458Z,54.40
2018-09-30T05:33:55.570Z,54.50
2018-09-30T05:36:25.000Z,54.60
2018-09-30T05:38:53.698Z,54.70
2018-09-30T05:41:22.615Z,54.70
2018-09-30T05:43:51.283Z,54.60
2018-09-30T05:46:20.475Z,54.60
2018-09-30T05:48:49.680Z,54.70
2018-09-30T05:51:18.360Z,54.80
2018-09-30T05:53:46.924Z,54.80
2018-09-30T05:56:15.809Z,54.70
2018-09-30T05:58:44.723Z,54.50
2018-09-30T06:01:13.854Z,54.60
2018-09-30T06:03:43.340Z,54.60
2018-09-30T06:06:12.506Z,54.70
2018-09-30T06:08:41.121Z,54.90
2018-09-30T06:11:10.396Z,55.00
2018-09-30T06:13:39.800Z,55.00
2018-09-30T06:16:08.687Z,55.00
2018-09-30T06:18:38.154Z,55.00
2018-09-30T06:21:07.119Z,55.10
2018-09-30T06:23:36.199Z,55.20
2018-09-30T06:26:05.984Z,55.20
2018-09-30T06:28:34.848Z,55.20
2018-09-30T06:31:03.643Z,55.70
2018-09-30T06:33:32.735Z,55.10
2018-09-30T06:36:01.856Z,55.00
2018-09-30T06:38:30.675Z,55.00
2018-09-30T06:40:59.774Z,55.10
2018-09-30T06:43:29.272Z,55.20
2018-09-30T06:45:58.650Z,55.70
2018-09-30T06:48:27.406Z,54.80
2018-09-30T06:50:57.562Z,54.90
2018-09-30T06:53:26.217Z,55.00
2018-09-30T06:55:55.757Z,54.90
2018-09-30T06:58:24.466Z,55.00
2018-09-30T07:00:53.683Z,55.10
2018-09-30T07:03:22.285Z,55.30
2018-09-30T07:05:50.947Z,55.50
2018-09-30T07:08:20.065Z,56.00
2018-09-30T07:10:48.872Z,55.10
2018-09-30T07:13:17.509Z,55.00
2018-09-30T07:15:46.127Z,54.90
2018-09-30T07:18:14.737Z,54.70
2018-09-30T07:20:43.783Z,54.50
2018-09-30T07:23:12.443Z,54.50
2018-09-30T07:25:41.511Z,54.30
2018-09-30T07:28:10.782Z,54.30
2018-09-30T07:30:39.680Z,54.20
2018-09-30T07:33:08.577Z,54.30
2018-09-30T07:35:37.919Z,54.20
2018-09-30T07:38:06.609Z,54.00
2018-09-30T07:40:35.285Z,53.90
2018-09-30T07:43:04.659Z,53.70
2018-09-30T07:45:33.772Z,53.70
2018-09-30T07:48:02.377Z,53.50
2018-09-30T07:50:31.034Z,53.60
2018-09-30T07:52:59.964Z,53.30
2018-09-30T07:55:28.703Z,53.10
2018-09-30T07:57:57.460Z,53.20
2018-09-30T08:00:25.988Z,53.00
2018-09-30T08:02:55.287Z,53.00
2018-09-30T08:05:23.940Z,52.60
2018-09-30T08:07:52.911Z,52.40
2018-09-30T08:10:22.554Z,52.40
2018-09-30T08:12:51.517Z,52.40
2018-09-30T08:15:20.312Z,52.10
2018-09-30T08:17:49.381Z,51.90
2018-09-30T08:20:17.964Z,52.00
2018-09-30T08:22:47.105Z,51.90
2018-09-30T08:25:15.897Z,51.80
2018-09-30T08:29:21.722Z,51.60
2018-09-30T08:31:50.759Z,51.20
2018-09-30T08:34:19.965Z,51.00
2018-09-30T08:36:48.873Z,51.00
2018-09-30T08:39:18.469Z,50.80
2018-09-30T08:41:47.835Z,50.60
2018-09-30T08:44:17.393Z,50.40
2018-09-30T08:46:46.036Z,49.20
2018-09-30T08:49:14.801Z,49.40
2018-09-30T08:51:44.142Z,48.90
2018-09-30T08:54:13.082Z,49.10
2018-09-30T08:56:42.323Z,49.00
2018-09-30T08:59:11.472Z,49.10
2018-09-30T09:01:40.577Z,48.60
2018-09-30T09:04:09.466Z,48.30
2018-09-30T09:06:38.911Z,48.10
2018-09-30T09:09:11.545Z,48.10
2018-09-30T09:11:40.833Z,47.70
2018-09-30T09:14:10.272Z,47.80
2018-09-30T09:16:39.248Z,47.50
2018-09-30T09:19:09.565Z,47.20
2018-09-30T09:21:38.319Z,47.20
2018-09-30T09:24:07.067Z,46.90
2018-09-30T09:26:36.057Z,46.90
2018-09-30T09:29:04.651Z,46.40
2018-09-30T09:31:33.377Z,46.30
2018-09-30T09:34:01.944Z,46.80
2018-09-30T09:36:33.880Z,45.90
2018-09-30T09:39:07.203Z,45.90
2018-09-30T09:41:38.469Z,45.80
2018-09-30T09:44:07.322Z,45.80
2018-09-30T09:46:35.891Z,45.40
2018-09-30T09:49:06.871Z,45.50
2018-09-30T09:51:36.542Z,45.20
2018-09-30T09:54:05.914Z,45.40
2018-09-30T09:56:34.735Z,45.00
2018-09-30T09:59:03.547Z,45.00
2018-09-30T10:01:32.270Z,45.00
2018-09-30T10:04:00.997Z,44.60
2018-09-30T10:06:30.508Z,44.90
2018-09-30T10:08:59.601Z,44.50
2018-09-30T10:11:28.960Z,44.30
2018-09-30T10:13:58.169Z,44.20
2018-09-30T10:16:27.375Z,44.30
2018-09-30T10:18:56.317Z,43.80
2018-09-30T10:21:26.244Z,43.60
2018-09-30T10:23:54.800Z,43.60
2018-09-30T10:26:23.735Z,43.40
2018-09-30T10:28:53.093Z,43.00
2018-09-30T10:31:21.721Z,42.60
2018-09-30T10:33:50.248Z,42.50
2018-09-30T10:36:19.082Z,42.50
2018-09-30T10:38:48.387Z,42.20
2018-09-30T10:41:17.611Z,41.40
2018-09-30T10:43:46.548Z,41.50
2018-09-30T10:46:15.598Z,41.10
2018-09-30T10:48:44.300Z,41.10
2018-09-30T10:51:13.504Z,40.80
2018-09-30T10:53:42.081Z,39.70
2018-09-30T10:56:10.939Z,39.90
2018-09-30T10:58:40.530Z,39.80
2018-09-30T11:01:09.346Z,39.60
2018-09-30T11:03:38.522Z,39.00
2018-09-30T11:06:07.573Z,38.90
2018-09-30T11:08:36.380Z,38.90
2018-09-30T11:11:05.270Z,38.10
2018-09-30T11:13:34.123Z,37.70
2018-09-30T11:16:02.860Z,37.50
2018-09-30T11:18:34.026Z,37.50
2018-09-30T11:21:03.234Z,36.50
2018-09-30T11:23:32.509Z,36.50
2018-09-30T11:26:01.244Z,35.80
2018-09-30T11:28:29.971Z,35.60
2018-09-30T11:30:58.894Z,34.70
2018-09-30T11:33:29.119Z,34.40
2018-09-30T11:35:58.258Z,34.60
2018-09-30T11:38:27.986Z,33.20
2018-09-30T11:40:57.457Z,33.90
2018-09-30T11:43:26.240Z,32.40
2018-09-30T11:45:55.176Z,32.70
2018-09-30T11:48:23.999Z,33.40
2018-09-30T11:50:53.083Z,33.20
2018-09-30T11:53:21.770Z,33.80
2018-09-30T11:55:50.924Z,33.50
2018-09-30T11:58:21.967Z,32.40
2018-09-30T12:00:50.950Z,32.10
2018-09-30T12:03:19.792Z,31.90
2018-09-30T12:05:48.448Z,32.00
2018-09-30T12:08:17.063Z,31.20
2018-09-30T12:10:45.775Z,31.00
2018-09-30T12:13:14.424Z,30.60
2018-09-30T12:15:44.041Z,31.20
2018-09-30T12:18:13.257Z,31.10
2018-09-30T12:20:43.019Z,30.30
2018-09-30T12:23:13.728Z,29.50
2018-09-30T12:25:43.737Z,29.50
2018-09-30T12:28:13.185Z,29.40
2018-09-30T12:30:42.337Z,29.00
2018-09-30T12:33:11.407Z,28.50
2018-09-30T12:35:40.583Z,28.60
2018-09-30T12:38:09.230Z,28.30
2018-09-30T12:40:39.145Z,28.20
2018-09-30T12:43:07.962Z,28.40
2018-09-30T12:45:36.847Z,28.00
2018-09-30T12:48:05.403Z,28.20
2018-09-30T12:50:34.438Z,27.90
2018-09-30T12:53:03.026Z,27.90
2018-09-30T12:55:31.894Z,27.20
2018-09-30T12:58:01.344Z,27.70
2018-09-30T13:00:30.028Z,27.60
2018-09-30T13:02:59.217Z,27.20
2018-09-30T13:05:27.853Z,27.20
2018-09-30T13:10:35.394Z,27.40
2018-09-30T13:13:06.194Z,27.50
2018-09-30T13:15:35.174Z,27.00
2018-09-30T13:18:04.304Z,26.70
2018-09-30T13:20:32.996Z,27.00
2018-09-30T13:23:01.798Z,27.10
2018-09-30T13:25:31.383Z,27.10
2018-09-30T13:28:00.205Z,26.80
2018-09-30T13:30:29.890Z,27.20
2018-09-30T13:32:59.253Z,27.00
2018-09-30T13:35:27.964Z,27.00
2018-09-30T13:37:56.743Z,27.10
2018-09-30T13:40:26.594Z,27.60
2018-09-30T13:42:56.355Z,27.70
2018-09-30T13:45:25.878Z,27.30
2018-09-30T13:47:54.938Z,27.70
2018-09-30T13:50:25.773Z,27.60
2018-09-30T13:52:54.604Z,27.30
2018-09-30T13:55:24.369Z,27.40
2018-09-30T13:57:53.070Z,27.30
2018-09-30T14:00:21.981Z,27.20
2018-09-30T14:02:50.549Z,27.30
2018-09-30T14:05:19.295Z,27.10
2018-09-30T14:07:49.641Z,27.30
2018-09-30T14:10:19.782Z,27.30
2018-09-30T14:12:49.245Z,27.40
2018-09-30T14:15:18.717Z,27.80
2018-09-30T14:17:50.044Z,27.30
2018-09-30T14:20:19.459Z,27.20
2018-09-30T14:22:48.121Z,27.20
2018-09-30T14:25:16.972Z,27.20
2018-09-30T14:27:46.358Z,27.40
2018-09-30T14:30:16.826Z,27.40
2018-09-30T14:32:48.136Z,27.50
2018-09-30T14:35:16.967Z,27.30
2018-09-30T14:37:45.614Z,27.50
2018-09-30T14:40:14.693Z,27.30
2018-09-30T14:42:43.542Z,27.40
2018-09-30T14:45:12.472Z,27.20
2018-09-30T14:47:41.281Z,27.40
2018-09-30T14:50:09.884Z,27.60
2018-09-30T14:52:38.619Z,27.60
2018-09-30T14:55:06.956Z,27.50
2018-09-30T14:57:36.478Z,27.50
2018-09-30T15:00:06.208Z,27.40
2018-09-30T15:02:35.267Z,27.60
2018-09-30T15:05:04.351Z,27.60
2018-09-30T15:07:33.034Z,27.50
2018-09-30T15:10:01.721Z,27.50
2018-09-30T15:12:33.064Z,27.60
2018-09-30T15:15:01.646Z,27.90
2018-09-30T15:17:30.300Z,28.00
2018-09-30T15:19:59.057Z,28.30
2018-09-30T15:22:27.805Z,28.20
2018-09-30T15:24:56.569Z,28.30
2018-09-30T15:27:25.538Z,28.30
2018-09-30T15:29:54.362Z,28.40
2018-09-30T15:32:23.300Z,28.50
2018-09-30T15:34:53.006Z,28.60
2018-09-30T15:37:21.748Z,28.60
2018-09-30T15:39:50.382Z,28.70
2018-09-30T15:42:19.060Z,28.90
2018-09-30T15:44:47.820Z,28.80
2018-09-30T15:47:17.942Z,28.90
2018-09-30T15:49:47.397Z,28.90
2018-09-30T15:52:16.292Z,28.90
2018-09-30T15:54:45.083Z,29.10
2018-09-30T15:57:14.362Z,29.10
2018-09-30T15:59:43.046Z,29.10
2018-09-30T16:02:11.781Z,29.30
2018-09-30T16:04:41.315Z,29.50
2018-09-30T16:07:10.072Z,29.60
2018-09-30T16:09:38.660Z,29.70
2018-09-30T16:12:07.274Z,29.90
2018-09-30T16:14:35.914Z,30.10
2018-09-30T16:17:05.989Z,30.00
2018-09-30T16:19:36.289Z,30.10
2018-09-30T16:22:06.962Z,30.40
2018-09-30T16:24:35.800Z,30.50
2018-09-30T16:27:04.899Z,30.60
2018-09-30T16:29:34.997Z,30.50
2018-09-30T16:32:05.159Z,30.70
2018-09-30T16:34:35.941Z,30.80
2018-09-30T16:37:05.983Z,30.80
2018-09-30T16:39:36.449Z,30.90
2018-09-30T16:42:05.114Z,31.00
2018-09-30T16:44:35.139Z,31.20
2018-09-30T16:47:05.914Z,31.40
2018-09-30T16:49:36.264Z,31.70
2018-09-30T16:52:05.061Z,31.70
2018-09-30T16:54:34.020Z,31.90
2018-09-30T16:57:02.623Z,32.00
2018-09-30T16:59:31.455Z,32.10
2018-09-30T17:02:00.489Z,32.30
2018-09-30T17:04:29.136Z,32.90
2018-09-30T17:07:00.110Z,32.70
2018-09-30T17:09:29.060Z,32.80
2018-09-30T17:11:57.698Z,32.90
2018-09-30T17:14:26.746Z,32.90
2018-09-30T17:16:55.320Z,33.20
2018-09-30T17:19:24.453Z,33.60
2018-09-30T17:21:53.221Z,34.00
2018-09-30T17:24:21.813Z,34.10
2018-09-30T17:26:50.402Z,34.30
2018-09-30T17:29:19.504Z,34.40
2018-09-30T17:31:48.440Z,34.70
2018-09-30T17:34:17.088Z,34.80
2018-09-30T17:36:45.785Z,34.80
2018-09-30T17:39:14.438Z,34.80
2018-09-30T17:41:43.409Z,34.80
2018-09-30T17:44:12.227Z,34.70
2018-09-30T17:46:41.227Z,34.80
2018-09-30T17:49:09.777Z,34.90
2018-09-30T17:51:39.283Z,35.60
2018-09-30T17:54:08.061Z,35.20
2018-09-30T17:56:36.759Z,35.30
2018-09-30T17:59:05.936Z,35.80
2018-09-30T18:01:34.601Z,36.20
2018-09-30T18:04:03.556Z,36.80
2018-09-30T18:06:32.155Z,37.50
2018-09-30T18:09:00.764Z,37.40
2018-09-30T18:11:30.595Z,37.50
2018-09-30T18:13:59.151Z,37.40
2018-09-30T18:16:28.108Z,37.20
2018-09-30T18:18:57.096Z,37.80
2018-09-30T18:21:27.193Z,38.00
2018-09-30T18:23:59.156Z,38.00
2018-09-30T18:26:29.870Z,37.60
2018-09-30T18:28:58.834Z,37.70
2018-09-30T18:31:30.393Z,37.80
2018-09-30T18:33:59.479Z,37.80
2018-09-30T18:36:29.900Z,38.00
2018-09-30T18:39:00.390Z,38.00
2018-09-30T18:41:30.583Z,38.10
2018-09-30T18:44:00.462Z,38.00
2018-09-30T18:46:30.693Z,38.20
2018-09-30T18:49:02.083Z,37.90
2018-09-30T18:51:31.821Z,37.90
2018-09-30T18:54:00.742Z,38.00
2018-09-30T18:56:31.214Z,37.80
2018-09-30T18:59:01.574Z,37.90
2018-09-30T19:01:32.643Z,38.00
2018-09-30T19:04:02.849Z,38.10
2018-09-30T19:06:32.956Z,38.20
2018-09-30T19:09:04.366Z,38.30
2018-09-30T19:11:34.240Z,38.20
2018-09-30T19:14:04.421Z,38.40
2018-09-30T19:16:35.112Z,38.50
2018-09-30T19:19:06.554Z,38.60
2018-09-30T19:21:36.882Z,38.80
2018-09-30T19:24:07.963Z,38.90
2018-09-30T19:26:37.905Z,38.80
2018-09-30T19:29:08.310Z,38.90
2018-09-30T19:31:38.700Z,39.10
2018-09-30T19:34:09.143Z,39.20
2018-09-30T19:36:39.855Z,39.10
2018-09-30T19:39:12.021Z,39.30
2018-09-30T19:41:42.011Z,39.30
2018-09-30T19:44:12.163Z,39.30
2018-09-30T19:46:42.419Z,39.40
2018-09-30T19:49:12.998Z,39.60
2018-09-30T19:51:42.615Z,39.60
2018-09-30T19:54:13.025Z,40.30
2018-09-30T19:56:43.901Z,39.80
2018-09-30T19:59:13.972Z,39.90
2018-09-30T20:01:44.223Z,40.20
2018-09-30T20:04:14.571Z,40.30
2018-09-30T20:06:46.114Z,40.40
2018-09-30T20:09:16.315Z,40.60
2018-09-30T20:11:46.781Z,40.70
2018-09-30T20:14:16.257Z,40.70
2018-09-30T20:16:46.262Z,40.80
2018-09-30T20:19:17.010Z,40.90
2018-09-30T20:21:47.155Z,41.20
2018-09-30T20:24:17.099Z,41.40
2018-09-30T20:26:48.047Z,41.50
2018-09-30T20:29:19.285Z,41.60
2018-09-30T20:31:49.332Z,41.80
2018-09-30T20:34:19.646Z,42.10
2018-09-30T20:36:49.521Z,42.10
2018-09-30T20:39:20.181Z,42.10
2018-09-30T20:41:49.809Z,42.00
2018-09-30T20:44:19.744Z,42.10
2018-09-30T20:46:50.265Z,42.10
2018-09-30T20:49:22.047Z,42.20
2018-09-30T20:51:52.982Z,42.40
2018-09-30T20:54:21.597Z,42.30
2018-09-30T20:56:50.614Z,42.40
2018-09-30T20:59:19.431Z,42.40
2018-09-30T21:01:48.598Z,42.40
2018-09-30T21:04:17.239Z,42.50
2018-09-30T21:06:46.228Z,42.40
2018-09-30T21:09:17.462Z,42.40
2018-09-30T21:11:46.257Z,42.50
2018-09-30T21:14:15.239Z,42.50
2018-09-30T21:16:43.822Z,42.60
2018-09-30T21:19:12.892Z,42.50
2018-09-30T21:21:42.372Z,42.50
2018-09-30T21:24:11.110Z,42.70
2018-09-30T21:26:40.045Z,42.60
2018-09-30T21:29:09.432Z,42.70
2018-09-30T21:31:38.566Z,42.90
2018-09-30T21:34:07.705Z,42.80
2018-09-30T21:36:36.517Z,42.90
2018-09-30T21:39:08.144Z,42.90
2018-09-30T21:41:37.313Z,43.00
2018-09-30T21:44:07.760Z,43.10
2018-09-30T21:46:39.019Z,42.90
2018-09-30T21:49:09.017Z,43.10
2018-09-30T21:51:39.837Z,43.20
2018-09-30T21:54:09.879Z,43.30
2018-09-30T21:56:38.599Z,43.30
2018-09-30T21:59:08.853Z,43.40
2018-09-30T22:01:38.897Z,43.50
2018-09-30T22:04:09.138Z,43.50
2018-09-30T22:06:39.773Z,43.50
2018-09-30T22:09:08.536Z,43.70
2018-09-30T22:11:37.983Z,43.70
2018-09-30T22:14:07.167Z,43.90
2018-09-30T22:16:36.804Z,44.00
2018-09-30T22:19:05.723Z,44.10
2018-09-30T22:21:35.004Z,44.20
2018-09-30T22:24:03.632Z,44.50
2018-09-30T22:26:32.722Z,44.50
2018-09-30T22:29:01.540Z,44.70
2018-09-30T22:31:30.369Z,44.70
2018-09-30T22:33:59.542Z,44.90
2018-09-30T22:36:28.174Z,45.10
2018-09-30T22:38:56.889Z,45.10
2018-09-30T22:41:25.492Z,45.30
2018-09-30T22:43:55.365Z,45.40
2018-09-30T22:46:24.058Z,45.50
2018-09-30T22:48:52.646Z,45.70
2018-09-30T22:51:21.766Z,45.90
2018-09-30T22:53:50.638Z,45.80
2018-09-30T22:56:19.731Z,45.90
2018-09-30T22:58:48.301Z,46.00
2018-09-30T23:01:17.282Z,46.30
2018-09-30T23:03:45.916Z,46.30
2018-09-30T23:06:14.610Z,46.70
2018-09-30T23:08:43.923Z,46.80
2018-09-30T23:11:12.469Z,47.00
2018-09-30T23:13:41.238Z,47.00
2018-09-30T23:16:09.993Z,47.00
2018-09-30T23:18:38.655Z,47.10
2018-09-30T23:21:07.268Z,47.10
2018-09-30T23:23:35.949Z,47.20
2018-09-30T23:26:04.934Z,47.20
2018-09-30T23:28:34.344Z,47.20
2018-09-30T23:31:03.156Z,47.30
2018-09-30T23:33:32.307Z,47.40
2018-09-30T23:36:01.410Z,48.20
2018-09-30T23:38:30.254Z,48.40
2018-09-30T23:40:58.952Z,48.60
2018-09-30T23:43:27.917Z,48.70
2018-09-30T23:45:56.517Z,48.70
2018-09-30T23:48:26.178Z,48.90
2018-09-30T23:50:55.029Z,48.90
2018-09-30T23:53:23.635Z,49.10
2018-09-30T23:55:52.344Z,49.10
2018-09-30T23:58:21.310Z,49.00
